Time;durP1;ratioP1;P1;durP2;ratioP2;P2;SDS_P1;SDS_P2;PMS_P1;PMS_P2;Temp;Humidity;BMP_temperature;BMP_pressure;BME280_temperature;BME280_humidity;BME280_pressure;Samples;Min_cycle;Max_cycle;Signal;HPM_P1;HPM_P2
2021/04/06 00:00:21;;;;;;;1.87;1.23;;;21.40;48.80;;;;;;5068283;28;20459;-82
2021/04/06 00:02:50;;;;;;;1.70;1.00;;;21.40;48.80;;;;;;5067186;28;20461;-83
2021/04/06 00:05:17;;;;;;;1.70;1.10;;;21.40;48.90;;;;;;5067511;28;20410;-82
2021/04/06 00:07:44;;;;;;;1.07;0.80;;;21.40;48.90;;;;;;5069333;28;20402;-82
2021/04/06 00:10:23;;;;;;;1.37;0.77;;;21.40;48.90;;;;;;5050612;28;20413;-83
2021/04/06 00:12:52;;;;;;;1.50;1.10;;;21.40;48.70;;;;;;5068533;28;20868;-83
2021/04/06 00:15:20;;;;;;;1.10;0.80;;;21.40;48.80;;;;;;5050806;28;20428;-83
2021/04/06 00:17:48;;;;;;;1.70;0.90;;;21.40;48.70;;;;;;5069172;28;20440;-82
2021/04/06 00:20:17;;;;;;;1.20;0.80;;;21.40;48.70;;;;;;5051630;28;20464;-82
2021/04/06 00:22:47;;;;;;;2.83;1.07;;;21.40;48.80;;;;;;5068364;28;20448;-82
2021/04/06 00:25:27;;;;;;;1.30;0.90;;;21.40;48.80;;;;;;5068898;28;20429;-83
2021/04/06 00:27:54;;;;;;;1.30;1.07;;;21.40;48.80;;;;;;5050902;28;20420;-83
2021/04/06 00:30:28;;;;;;;1.57;1.00;;;21.40;48.70;;;;;;5069315;28;20477;-83
2021/04/06 00:33:13;;;;;;;1.43;0.90;;;21.30;49.50;;;;;;5050717;28;20417;-83
2021/04/06 00:35:40;;;;;;;1.37;0.90;;;21.40;48.60;;;;;;5067954;28;20475;-83
2021/04/06 00:38:12;;;;;;;1.10;0.80;;;21.40;48.80;;;;;;5067830;28;20417;-83
2021/04/06 00:40:45;;;;;;;2.40;0.90;;;21.20;48.70;;;;;;5067699;28;20426;-83
2021/04/06 00:43:12;;;;;;;1.77;0.90;;;21.40;48.80;;;;;;5068235;28;20508;-83
2021/04/06 00:45:40;;;;;;;1.30;0.80;;;21.30;48.90;;;;;;5068039;28;20925;-83
2021/04/06 00:48:11;;;;;;;1.30;0.93;;;21.20;49.20;;;;;;5067608;28;20413;-83
2021/04/06 00:50:45;;;;;;;1.40;0.70;;;21.40;49.40;;;;;;5066836;28;20417;-83
2021/04/06 00:53:10;;;;;;;1.67;0.80;;;21.30;48.70;;;;;;5050003;28;20410;-83
2021/04/06 00:55:39;;;;;;;1.50;0.80;;;21.10;48.80;;;;;;5067043;28;20503;-83
2021/04/06 00:58:12;;;;;;;1.30;0.77;;;21.30;48.90;;;;;;5067830;28;20167;-83
2021/04/06 01:00:39;;;;;;;0.90;0.73;;;21.30;48.80;;;;;;5068115;28;20491;-83
2021/04/06 01:03:18;;;;;;;1.40;0.90;;;21.40;49.00;;;;;;5051250;28;20469;-83
2021/04/06 01:05:59;;;;;;;1.83;0.90;;;21.30;48.60;;;;;;5071562;28;20393;-83
2021/04/06 01:08:43;;;;;;;1.23;0.80;;;21.30;49.50;;;;;;5071586;28;20412;-83
2021/04/06 01:11:09;;;;;;;1.20;0.97;;;20.90;49.10;;;;;;5071113;28;20386;-82
2021/04/06 01:13:36;;;;;;;1.13;0.73;;;21.30;48.90;;;;;;5071391;28;20767;-83
2021/04/06 01:16:02;;;;;;;1.30;0.80;;;21.30;48.70;;;;;;5070654;28;20406;-83
2021/04/06 01:18:29;;;;;;;1.50;1.07;;;21.30;48.80;;;;;;5070840;28;20409;-83
2021/04/06 01:20:55;;;;;;;1.00;0.80;;;21.30;49.00;;;;;;5070468;28;20798;-83
2021/04/06 01:23:22;;;;;;;1.03;0.80;;;21.30;49.30;;;;;;5071492;28;20452;-82
2021/04/06 01:25:53;;;;;;;1.10;0.87;;;21.30;48.90;;;;;;5070941;28;20492;-83
2021/04/06 01:28:20;;;;;;;0.90;0.80;;;21.30;48.80;;;;;;5069483;28;20440;-83
2021/04/06 01:30:50;;;;;;;2.17;0.90;;;21.20;48.90;;;;;;5070908;28;20500;-83
2021/04/06 01:33:19;;;;;;;0.90;0.70;;;21.30;48.70;;;;;;5070353;28;20421;-83
2021/04/06 01:35:51;;;;;;;1.20;0.87;;;21.30;48.80;;;;;;5052833;28;20421;-83
2021/04/06 01:38:17;;;;;;;1.17;0.90;;;21.30;48.90;;;;;;5052661;28;20461;-83
2021/04/06 01:44:05;;;;;;;1.20;0.80;;;21.10;48.40;;;;;;5070604;28;20423;-83
2021/04/06 01:46:38;;;;;;;1.40;0.80;;;21.30;49.00;;;;;;5052622;28;20467;-83
2021/04/06 01:49:04;;;;;;;1.00;0.80;;;21.30;49.30;;;;;;5069172;28;20409;-83
2021/04/06 01:51:33;;;;;;;0.90;0.60;;;21.20;48.70;;;;;;5052593;28;20825;-83
2021/04/06 01:54:06;;;;;;;1.33;0.80;;;21.30;49.10;;;;;;5070469;28;20408;-83
2021/04/06 01:56:37;;;;;;;1.00;0.73;;;21.30;48.80;;;;;;5070082;28;20405;-83
2021/04/06 01:59:07;;;;;;;1.47;1.10;;;21.30;48.80;;;;;;5068744;28;20408;-83
2021/04/06 02:01:36;;;;;;;1.50;0.87;;;21.30;48.90;;;;;;5069026;28;20532;-83
2021/04/06 02:04:06;;;;;;;2.50;2.20;;;21.30;49.00;;;;;;5052624;28;20469;-83
2021/04/06 02:06:38;;;;;;;0.90;0.70;;;21.30;48.80;;;;;;5069074;28;20435;-83
2021/04/06 02:09:08;;;;;;;1.27;0.90;;;21.30;48.80;;;;;;5051696;28;20464;-83
2021/04/06 02:11:37;;;;;;;1.20;1.00;;;21.30;48.80;;;;;;5068760;28;20424;-83
2021/04/06 02:14:11;;;;;;;0.90;0.77;;;21.20;48.80;;;;;;5068785;28;20481;-83
2021/04/06 02:16:42;;;;;;;1.00;0.70;;;21.30;48.80;;;;;;5069214;28;20413;-83
2021/04/06 02:19:08;;;;;;;1.33;0.93;;;21.30;49.40;;;;;;5070306;28;20487;-83
2021/04/06 02:21:47;;;;;;;1.40;0.80;;;21.30;49.00;;;;;;5069652;28;20481;-83
2021/04/06 02:24:27;;;;;;;1.00;0.80;;;21.30;48.70;;;;;;5052081;28;20294;-83
2021/04/06 02:27:05;;;;;;;1.17;0.77;;;21.30;48.80;;;;;;5069104;28;20436;-83
2021/04/06 02:29:36;;;;;;;2.70;1.10;;;21.30;48.60;;;;;;5068735;28;20481;-83
2021/04/06 02:32:06;;;;;;;1.00;0.73;;;21.30;49.00;;;;;;5052638;28;20410;-83
2021/04/06 02:34:34;;;;;;;1.03;0.73;;;21.30;49.20;;;;;;5051812;28;20409;-83
2021/04/06 02:37:03;;;;;;;1.00;0.87;;;21.30;48.70;;;;;;5068309;28;20421;-83
2021/04/06 02:39:30;;;;;;;1.93;0.87;;;21.30;49.50;;;;;;5070665;28;20406;-83
2021/04/06 02:41:56;;;;;;;1.10;0.80;;;21.20;49.20;;;;;;5069576;28;20449;-82
2021/04/06 02:44:21;;;;;;;0.90;0.63;;;21.30;49.20;;;;;;5068681;28;20501;-83
2021/04/06 02:46:51;;;;;;;1.40;0.90;;;21.30;49.00;;;;;;5069425;28;20175;-83
2021/04/06 02:49:17;;;;;;;1.97;1.10;;;21.10;48.90;;;;;;5070537;28;20175;-83
2021/04/06 02:51:43;;;;;;;2.03;1.00;;;21.20;48.80;;;;;;5069467;28;20413;-82
2021/04/06 02:54:12;;;;;;;1.40;0.80;;;21.30;49.00;;;;;;5070709;28;20436;-83
2021/04/06 02:56:38;;;;;;;1.00;0.90;;;21.30;48.80;;;;;;5070623;28;20481;-82
2021/04/06 02:59:18;;;;;;;2.90;2.60;;;21.30;49.20;;;;;;5070186;28;20416;-83
2021/04/06 03:01:45;;;;;;;1.07;0.80;;;21.30;48.80;;;;;;5068911;28;20467;-82
2021/04/06 03:04:26;;;;;;;1.10;0.80;;;21.20;48.80;;;;;;5069528;28;20406;-82
2021/04/06 03:06:57;;;;;;;1.40;0.80;;;21.30;49.00;;;;;;5052935;28;20418;-82
2021/04/06 03:09:25;;;;;;;1.30;0.80;;;21.30;48.70;;;;;;5068907;28;20413;-82
2021/04/06 03:11:54;;;;;;;1.00;0.70;;;21.20;48.70;;;;;;5052598;28;20422;-82
2021/04/06 03:14:27;;;;;;;0.90;0.73;;;21.20;48.70;;;;;;5069540;28;20417;-82
2021/04/06 03:16:53;;;;;;;1.23;0.80;;;21.30;49.40;;;;;;5069587;28;20421;-82
2021/04/06 03:19:29;;;;;;;1.30;0.70;;;21.30;49.10;;;;;;5051976;28;20414;-82
2021/04/06 03:22:14;;;;;;;1.40;0.93;;;21.30;48.80;;;;;;5067794;28;20445;-84
2021/04/06 03:24:43;;;;;;;1.50;1.00;;;21.30;49.00;;;;;;5068375;28;20903;-83
2021/04/06 03:27:08;;;;;;;1.20;0.90;;;21.20;49.10;;;;;;5054519;28;20446;-83
2021/04/06 03:29:35;;;;;;;1.30;1.00;;;21.20;48.90;;;;;;5048403;28;20488;-83
2021/04/06 03:32:01;;;;;;;1.20;0.80;;;21.20;48.90;;;;;;5067747;28;20202;-82
2021/04/06 03:34:41;;;;;;;0.80;0.63;;;21.20;48.80;;;;;;5067472;28;20428;-83
2021/04/06 03:37:07;;;;;;;1.93;0.93;;;21.20;48.90;;;;;;5067205;28;20410;-83
2021/04/06 03:39:35;;;;;;;1.90;0.80;;;21.10;48.80;;;;;;5067433;28;20436;-82
2021/04/06 03:42:06;;;;;;;0.80;0.63;;;21.20;48.70;;;;;;5066920;28;20457;-82
2021/04/06 03:44:32;;;;;;;1.13;0.80;;;21.20;48.90;;;;;;5067713;28;20374;-83
2021/04/06 03:47:01;;;;;;;0.83;0.70;;;21.20;48.80;;;;;;5068877;28;20414;-82
2021/04/06 03:49:28;;;;;;;1.17;0.80;;;21.20;48.80;;;;;;5033694;28;20556;-82
2021/04/06 03:52:06;;;;;;;1.27;0.90;;;21.20;48.90;;;;;;5066333;28;20787;-82
2021/04/06 03:54:44;;;;;;;1.07;0.80;;;21.20;48.70;;;;;;5068219;28;20409;-83
2021/04/06 03:57:22;;;;;;;1.20;0.87;;;21.20;48.70;;;;;;5067139;28;20412;-83
2021/04/06 03:59:49;;;;;;;1.00;0.70;;;21.20;48.90;;;;;;5068256;28;20413;-83
2021/04/06 04:02:15;;;;;;;1.30;0.90;;;21.20;48.90;;;;;;5067842;28;20453;-83
2021/04/06 04:04:41;;;;;;;1.10;0.73;;;21.20;49.40;;;;;;5050481;28;20412;-83
2021/04/06 04:07:10;;;;;;;1.20;0.90;;;21.20;49.10;;;;;;5050223;28;20175;-83
2021/04/06 04:09:36;;;;;;;1.00;0.77;;;21.20;49.10;;;;;;5067603;28;20163;-83
2021/04/06 04:12:01;;;;;;;1.27;0.60;;;21.10;49.90;;;;;;5066733;28;20555;-83
2021/04/06 04:14:30;;;;;;;1.30;0.70;;;21.10;49.30;;;;;;5067551;28;20211;-83
2021/04/06 04:16:56;;;;;;;1.03;0.90;;;21.10;48.70;;;;;;5067875;28;20649;-83
2021/04/06 04:19:22;;;;;;;1.00;0.60;;;21.10;49.00;;;;;;5068102;28;20417;-82
2021/04/06 04:21:47;;;;;;;1.40;0.90;;;21.10;49.10;;;;;;5067738;28;20258;-82
2021/04/06 04:24:13;;;;;;;1.30;0.80;;;21.10;49.40;;;;;;5067343;28;20644;-82
2021/04/06 04:26:39;;;;;;;1.57;0.97;;;21.10;49.30;;;;;;5066471;28;20167;-82
2021/04/06 04:29:05;;;;;;;1.00;0.80;;;21.10;49.00;;;;;;5068395;28;20167;-82
2021/04/06 04:31:31;;;;;;;1.10;0.70;;;21.10;48.80;;;;;;5066735;28;20197;-82
2021/04/06 04:33:56;;;;;;;0.90;0.60;;;21.10;49.10;;;;;;5067072;28;20413;-83
2021/04/06 04:36:22;;;;;;;1.07;0.70;;;21.10;48.90;;;;;;5050195;28;20186;-83
2021/04/06 04:38:48;;;;;;;1.13;0.70;;;21.10;48.90;;;;;;5069144;28;20180;-83
2021/04/06 04:41:13;;;;;;;1.07;0.70;;;21.10;49.00;;;;;;5070540;28;20238;-83
2021/04/06 04:43:39;;;;;;;1.17;0.80;;;21.10;48.80;;;;;;5070648;28;20171;-82
2021/04/06 04:46:05;;;;;;;1.57;1.00;;;21.10;48.80;;;;;;5070097;28;20182;-82
2021/04/06 04:48:30;;;;;;;1.00;0.80;;;21.10;48.80;;;;;;5070935;28;20602;-82
2021/04/06 04:50:56;;;;;;;1.13;0.80;;;21.20;48.80;;;;;;5070653;28;20194;-82
2021/04/06 04:53:22;;;;;;;1.00;0.70;;;21.20;49.40;;;;;;5071861;28;20253;-83
2021/04/06 04:55:47;;;;;;;1.20;0.80;;;21.20;49.30;;;;;;5067271;28;20179;-83
2021/04/06 04:58:13;;;;;;;1.73;0.87;;;21.20;48.80;;;;;;5046205;28;20191;-83
2021/04/06 05:00:41;;;;;;;1.23;0.80;;;21.20;48.70;;;;;;5050950;28;20605;-83
2021/04/06 05:03:06;;;;;;;1.30;0.90;;;21.20;48.60;;;;;;5050706;28;20211;-83
2021/04/06 05:05:32;;;;;;;1.50;0.70;;;21.30;48.70;;;;;;5050195;28;20476;-83
2021/04/06 05:07:58;;;;;;;1.00;0.73;;;21.20;48.60;;;;;;5032674;28;20242;-83
2021/04/06 05:10:24;;;;;;;1.40;0.80;;;21.30;48.90;;;;;;5050435;28;20172;-82
2021/04/06 05:12:49;;;;;;;1.00;0.83;;;21.30;48.70;;;;;;5051042;28;20231;-82
2021/04/06 05:15:16;;;;;;;1.07;0.67;;;21.30;48.60;;;;;;5050681;28;20626;-83
2021/04/06 05:17:42;;;;;;;1.50;0.90;;;21.30;48.60;;;;;;5049987;28;20541;-83
2021/04/06 05:20:09;;;;;;;1.33;1.07;;;21.30;48.50;;;;;;5051136;28;20825;-83
2021/04/06 05:22:36;;;;;;;1.33;0.90;;;21.30;48.40;;;;;;5033338;28;20499;-83
2021/04/06 05:25:03;;;;;;;0.90;0.73;;;21.30;48.40;;;;;;5050319;28;20411;-83
2021/04/06 05:27:31;;;;;;;0.93;0.70;;;21.30;48.40;;;;;;5050052;28;20434;-83
2021/04/06 05:29:56;;;;;;;1.80;0.80;;;21.40;48.70;;;;;;5033109;28;20423;-83
2021/04/06 05:32:25;;;;;;;1.10;0.80;;;21.30;48.40;;;;;;5050516;28;20410;-83
2021/04/06 05:34:50;;;;;;;1.20;0.90;;;21.40;48.50;;;;;;5017233;28;20206;-83
2021/04/06 05:40:41;;;;;;;0.90;0.70;;;21.40;48.30;;;;;;5051937;28;20183;-84
2021/04/06 05:43:09;;;;;;;1.70;1.13;;;21.40;48.40;;;;;;5050428;28;20808;-83
2021/04/06 05:45:38;;;;;;;1.10;0.77;;;21.40;48.40;;;;;;5018261;28;20422;-83
2021/04/06 05:48:05;;;;;;;1.00;0.80;;;21.40;48.50;;;;;;5052794;28;20433;-83
2021/04/06 05:50:42;;;;;;;1.00;0.70;;;21.50;48.50;;;;;;5033690;28;20418;-83
2021/04/06 05:53:08;;;;;;;1.53;0.70;;;21.50;48.50;;;;;;5050051;28;20466;-83
2021/04/06 05:55:33;;;;;;;1.17;0.70;;;21.50;48.50;;;;;;5049921;28;20473;-82
2021/04/06 05:57:59;;;;;;;1.00;0.73;;;21.40;48.40;;;;;;5049895;28;20172;-83
2021/04/06 06:00:25;;;;;;;1.17;0.93;;;21.40;48.40;;;;;;5050184;28;20251;-83
2021/04/06 06:02:51;;;;;;;1.10;0.83;;;21.40;48.40;;;;;;5053703;28;20214;-83
2021/04/06 06:05:17;;;;;;;1.37;0.90;;;21.50;48.60;;;;;;5051930;28;20183;-83
2021/04/06 06:07:43;;;;;;;1.20;0.70;;;21.50;48.60;;;;;;5030779;28;20419;-83
2021/04/06 06:10:29;;;;;;;0.97;0.80;;;21.40;48.50;;;;;;5030518;28;20422;-82
2021/04/06 06:13:13;;;;;;;1.20;0.90;;;21.50;48.30;;;;;;5047190;28;20421;-83
2021/04/06 06:15:42;;;;;;;1.80;0.90;;;21.50;48.50;;;;;;5031440;28;20474;-83
2021/04/06 06:18:08;;;;;;;1.10;0.70;;;21.50;48.50;;;;;;5047892;28;20438;-83
2021/04/06 06:20:35;;;;;;;1.80;0.70;;;21.50;48.50;;;;;;5030806;28;20457;-83
2021/04/06 06:23:21;;;;;;;1.20;0.87;;;21.40;48.30;;;;;;5048592;28;20627;-83
2021/04/06 06:26:02;;;;;;;0.90;0.70;;;21.50;48.30;;;;;;5049067;28;20418;-85
2021/04/06 06:28:28;;;;;;;0.90;0.70;;;21.50;48.70;;;;;;5029742;28;20411;-85
2021/04/06 06:30:55;;;;;;;1.00;0.80;;;21.50;48.60;;;;;;5041955;28;20494;-85
2021/04/06 06:33:23;;;;;;;1.20;0.70;;;21.50;48.60;;;;;;5032747;28;20422;-86
2021/04/06 06:35:54;;;;;;;0.90;0.70;;;21.50;48.30;;;;;;5028900;28;20424;-84
2021/04/06 06:38:27;;;;;;;0.90;0.70;;;21.50;49.00;;;;;;5047617;28;20423;-84
2021/04/06 06:41:09;;;;;;;1.50;0.87;;;21.50;48.30;;;;;;5038713;28;20919;-85
2021/04/06 06:43:36;;;;;;;1.43;0.80;;;21.50;48.30;;;;;;5035526;28;20460;-85
2021/04/06 06:46:15;;;;;;;1.30;0.77;;;21.50;48.30;;;;;;5027905;28;20419;-84
2021/04/06 06:48:41;;;;;;;1.00;0.73;;;21.50;48.30;;;;;;5054957;28;20429;-84
2021/04/06 06:51:10;;;;;;;1.20;0.90;;;21.50;48.40;;;;;;5024914;28;20494;-84
2021/04/06 06:53:41;;;;;;;1.30;0.70;;;21.50;49.10;;;;;;5027469;28;20187;-84
2021/04/06 06:56:10;;;;;;;0.80;0.60;;;21.50;48.40;;;;;;5029774;28;20481;-84
2021/04/06 06:58:42;;;;;;;1.97;0.80;;;21.50;48.40;;;;;;5031833;28;20422;-84
2021/04/06 07:01:23;;;;;;;1.37;0.80;;;21.50;48.40;;;;;;5044928;28;20455;-84
2021/04/06 07:04:05;;;;;;;1.20;0.80;;;21.50;48.40;;;;;;5047489;28;20421;-85
2021/04/06 07:06:32;;;;;;;1.40;0.90;;;21.50;48.40;;;;;;5042269;28;20450;-84
2021/04/06 07:08:58;;;;;;;0.90;0.70;;;21.50;48.50;;;;;;5045798;28;20406;-85
2021/04/06 07:11:26;;;;;;;0.90;0.70;;;21.50;48.40;;;;;;5046434;28;20429;-84
2021/04/06 07:13:56;;;;;;;1.00;0.70;;;21.50;48.40;;;;;;5047824;28;20467;-83
2021/04/06 07:16:22;;;;;;;1.10;0.80;;;21.50;48.40;;;;;;5043764;28;20429;-84
2021/04/06 07:18:50;;;;;;;0.90;0.60;;;21.50;48.50;;;;;;5045120;28;20422;-84
2021/04/06 07:21:23;;;;;;;1.10;0.70;;;21.50;48.40;;;;;;5042043;28;20427;-85
2021/04/06 07:24:08;;;;;;;0.80;0.60;;;21.50;48.40;;;;;;5048623;28;20411;-84
2021/04/06 07:26:34;;;;;;;1.00;0.70;;;21.50;48.40;;;;;;5045308;28;20478;-85
2021/04/06 07:29:06;;;;;;;1.87;0.90;;;21.50;48.70;;;;;;5038034;28;20429;-84
2021/04/06 07:31:39;;;;;;;1.00;0.60;;;21.50;48.40;;;;;;5023483;28;20426;-85
2021/04/06 07:34:09;;;;;;;0.80;0.60;;;21.50;48.50;;;;;;5031483;28;20415;-85
2021/04/06 07:36:35;;;;;;;0.90;0.60;;;21.50;48.50;;;;;;5030124;28;20422;-85
2021/04/06 07:39:05;;;;;;;0.90;0.70;;;21.50;48.50;;;;;;5053416;28;20461;-85
2021/04/06 07:41:34;;;;;;;3.70;0.70;;;21.50;48.50;;;;;;5047447;28;20415;-85
2021/04/06 07:44:03;;;;;;;1.10;0.73;;;21.50;48.50;;;;;;5044600;28;20757;-84
2021/04/06 07:46:49;;;;;;;1.13;0.80;;;21.40;48.50;;;;;;5046938;28;20418;-85
2021/04/06 07:49:22;;;;;;;0.90;0.67;;;21.50;48.50;;;;;;5028323;28;20419;-85
2021/04/06 07:51:51;;;;;;;1.10;0.70;;;21.40;48.50;;;;;;5058981;28;20418;-85
2021/04/06 07:54:50;;;;;;;0.90;0.60;;;21.40;48.40;;;;;;5028558;28;20497;-85
2021/04/06 07:57:17;;;;;;;1.60;0.83;;;21.50;48.50;;;;;;5012020;28;20573;-86
2021/04/06 07:59:49;;;;;;;1.43;0.70;;;21.40;48.50;;;;;;5044821;28;20419;-85
2021/04/06 08:02:26;;;;;;;1.70;1.40;;;21.40;48.50;;;;;;5012783;28;20466;-85
2021/04/06 08:05:00;;;;;;;2.13;1.07;;;21.50;48.50;;;;;;5053408;28;20418;-88
2021/04/06 08:07:32;;;;;;;1.03;0.73;;;21.40;48.50;;;;;;5024706;28;20482;-85
2021/04/06 08:10:03;;;;;;;1.50;0.60;;;21.40;48.50;;;;;;5046527;28;20505;-84
2021/04/06 08:12:33;;;;;;;1.47;0.90;;;21.40;48.40;;;;;;5045557;28;20422;-85
2021/04/06 08:15:02;;;;;;;1.13;0.83;;;21.40;48.50;;;;;;5045012;28;20414;-84
2021/04/06 08:17:49;;;;;;;1.10;0.80;;;21.50;48.50;;;;;;5042048;28;20430;-84
2021/04/06 08:20:23;;;;;;;1.80;0.73;;;21.50;49.00;;;;;;5061125;28;20422;-83
2021/04/06 08:23:02;;;;;;;1.10;0.70;;;21.50;48.60;;;;;;5029152;28;20458;-81
2021/04/06 08:26:04;;;;;;;1.63;0.90;;;21.50;48.50;;;;;;5025126;28;20418;-83
2021/04/06 08:28:37;;;;;;;1.00;0.77;;;21.50;48.50;;;;;;5020515;28;20446;-83
2021/04/06 08:31:32;;;;;;;1.43;0.70;;;21.40;48.40;;;;;;5038781;28;20415;-82
2021/04/06 08:34:28;;;;;;;1.27;0.70;;;21.40;48.40;;;;;;5023388;28;20417;-82
2021/04/06 08:37:09;;;;;;;1.10;0.80;;;21.40;48.40;;;;;;5027404;28;20489;-83
2021/04/06 08:39:39;;;;;;;1.20;0.90;;;21.50;48.60;;;;;;5044947;28;20506;-82
2021/04/06 08:42:08;;;;;;;0.90;0.70;;;21.50;48.50;;;;;;5032086;28;20462;-84
2021/04/06 08:44:38;;;;;;;2.20;0.90;;;21.50;48.50;;;;;;5048648;28;20487;-83
2021/04/06 08:47:05;;;;;;;1.57;0.67;;;21.40;48.20;;;;;;5037922;28;20421;-83
2021/04/06 08:49:41;;;;;;;1.37;1.00;;;21.50;48.60;;;;;;5032385;28;20414;-82
2021/04/06 08:52:12;;;;;;;1.00;0.80;;;21.50;48.30;;;;;;5059448;28;20463;-82
2021/04/06 08:54:38;;;;;;;1.47;0.90;;;21.40;48.30;;;;;;5054438;28;20409;-81
2021/04/06 08:57:09;;;;;;;0.97;0.60;;;21.40;48.40;;;;;;5046139;28;20524;-83
2021/04/06 08:59:39;;;;;;;1.00;0.70;;;21.40;48.30;;;;;;5048214;28;20410;-82
2021/04/06 09:02:11;;;;;;;1.37;0.70;;;21.50;48.40;;;;;;5052469;28;20488;-83
2021/04/06 09:04:39;;;;;;;1.23;0.90;;;21.40;48.30;;;;;;5045776;28;20434;-83
2021/04/06 09:07:20;;;;;;;2.13;1.10;;;21.40;48.30;;;;;;5044125;28;20783;-83
2021/04/06 09:09:49;;;;;;;2.97;0.83;;;21.40;48.20;;;;;;5055503;28;20406;-82
2021/04/06 09:12:16;;;;;;;1.90;1.10;;;21.50;48.40;;;;;;5056079;28;20406;-82
2021/04/06 09:14:42;;;;;;;1.87;1.37;;;21.50;48.50;;;;;;5049354;28;20418;-83
2021/04/06 09:17:13;;;;;;;1.40;0.90;;;21.40;48.40;;;;;;5030347;28;20410;-83
2021/04/06 09:19:42;;;;;;;2.93;1.30;;;21.50;48.40;;;;;;5055066;28;20433;-83
2021/04/06 09:22:12;;;;;;;2.70;1.70;;;21.40;48.70;;;;;;5030879;28;20510;-82
2021/04/06 09:24:40;;;;;;;2.50;1.73;;;21.50;48.50;;;;;;5049907;28;20414;-82
2021/04/06 09:27:07;;;;;;;3.83;1.57;;;21.40;48.40;;;;;;5052531;28;20418;-83
2021/04/06 09:29:42;;;;;;;2.33;1.60;;;21.40;48.40;;;;;;5053968;28;20457;-83
2021/04/06 09:32:13;;;;;;;2.17;1.70;;;21.50;48.50;;;;;;5058955;28;20422;-81
2021/04/06 09:34:44;;;;;;;2.93;1.80;;;21.50;48.50;;;;;;5059406;28;20425;-82
2021/04/06 09:37:13;;;;;;;3.40;1.70;;;21.50;48.50;;;;;;5042614;28;20419;-81
2021/04/06 09:39:42;;;;;;;2.50;1.70;;;21.40;48.40;;;;;;5053936;28;20457;-82
2021/04/06 09:42:09;;;;;;;3.17;1.70;;;21.40;48.40;;;;;;5063940;28;20552;-81
2021/04/06 09:44:38;;;;;;;3.60;2.33;;;21.40;48.40;;;;;;5060293;28;20426;-82
2021/04/06 09:47:12;;;;;;;3.13;2.07;;;21.40;48.50;;;;;;5043607;28;20452;-81
2021/04/06 09:49:47;;;;;;;2.93;2.13;;;21.50;48.60;;;;;;5036631;28;20441;-81
2021/04/06 09:52:14;;;;;;;3.90;1.97;;;21.40;48.40;;;;;;5053599;28;20418;-81
2021/04/06 09:54:45;;;;;;;2.40;1.80;;;21.40;48.50;;;;;;5053085;28;20414;-81
2021/04/06 09:57:11;;;;;;;4.33;2.17;;;21.40;48.50;;;;;;5030916;28;20417;-82
2021/04/06 10:00:12;;;;;;;3.73;1.80;;;21.50;48.50;;;;;;5047642;28;21002;-81
2021/04/06 10:02:38;;;;;;;2.93;1.87;;;21.40;48.40;;;;;;5031687;28;20505;-81
2021/04/06 10:05:15;;;;;;;2.90;2.47;;;21.40;48.90;;;;;;5047863;28;20425;-81
2021/04/06 10:07:46;;;;;;;2.27;1.77;;;21.40;48.50;;;;;;5050522;28;20175;-80
2021/04/06 10:10:45;;;;;;;2.40;2.10;;;21.50;48.70;;;;;;5048962;28;20414;-81
2021/04/06 10:13:11;;;;;;;3.23;2.07;;;21.40;48.50;;;;;;5030079;28;20413;-81
2021/04/06 10:15:37;;;;;;;4.00;3.50;;;21.40;48.50;;;;;;5061313;28;20410;-82
2021/04/06 10:18:13;;;;;;;3.03;1.87;;;21.40;48.80;;;;;;5063277;28;20424;-81
2021/04/06 10:20:48;;;;;;;3.50;1.93;;;21.40;48.50;;;;;;5043903;28;20175;-83
2021/04/06 10:23:28;;;;;;;3.33;2.00;;;21.40;48.80;;;;;;5027922;28;20466;-83
2021/04/06 10:25:54;;;;;;;2.73;2.00;;;21.40;49.20;;;;;;5053329;28;20422;-83
2021/04/06 10:28:26;;;;;;;2.63;1.50;;;21.40;48.90;;;;;;5058374;28;20412;-83
2021/04/06 10:31:00;;;;;;;2.63;1.90;;;21.40;48.50;;;;;;5044219;28;20198;-83
2021/04/06 10:33:29;;;;;;;2.97;2.00;;;21.20;48.80;;;;;;5055227;28;20425;-83
2021/04/06 10:36:09;;;;;;;2.47;1.87;;;21.40;48.70;;;;;;5058316;28;20472;-83
2021/04/06 10:38:39;;;;;;;2.73;1.80;;;21.00;48.20;;;;;;5038059;28;20850;-83
2021/04/06 10:41:08;;;;;;;3.23;1.43;;;21.40;48.50;;;;;;5039279;28;20418;-84
2021/04/06 10:43:42;;;;;;;2.27;1.47;;;21.50;49.10;;;;;;5051863;28;20457;-84
2021/04/06 10:46:26;;;;;;;2.00;1.50;;;21.50;48.50;;;;;;5051410;28;20488;-87
2021/04/06 10:49:02;;;;;;;3.53;1.90;;;21.50;49.00;;;;;;5036104;28;20514;-84
2021/04/06 10:51:29;;;;;;;2.43;1.70;;;21.50;48.50;;;;;;5043148;28;20405;-85
2021/04/06 10:54:11;;;;;;;3.23;1.67;;;21.50;48.50;;;;;;5054020;28;20446;-84
2021/04/06 10:56:52;;;;;;;3.10;1.77;;;21.50;48.70;;;;;;5064227;28;20409;-84
2021/04/06 10:59:37;;;;;;;1.93;1.50;;;21.50;48.70;;;;;;5018054;28;20418;-84
2021/04/06 11:02:04;;;;;;;6.33;2.07;;;21.50;48.60;;;;;;5046320;28;20469;-84
2021/04/06 11:04:39;;;;;;;11.33;2.40;;;21.50;48.50;;;;;;5045753;28;20469;-83
2021/04/06 11:07:11;;;;;;;4.47;1.70;;;21.50;48.80;;;;;;5062316;28;20885;-84
2021/04/06 11:09:40;;;;;;;5.90;2.07;;;21.50;48.70;;;;;;5044949;28;20783;-84
2021/04/06 11:12:18;;;;;;;4.27;1.60;;;21.50;48.60;;;;;;5040457;28;20425;-84
2021/04/06 11:14:46;;;;;;;4.53;1.60;;;21.50;48.70;;;;;;5048351;28;20434;-85
2021/04/06 11:17:13;;;;;;;3.40;2.07;;;21.50;48.60;;;;;;5058215;28;20411;-85
2021/04/06 11:19:39;;;;;;;2.90;1.53;;;21.50;48.60;;;;;;5033934;28;20437;-84
2021/04/06 11:22:11;;;;;;;5.33;2.07;;;21.20;48.30;;;;;;5052771;28;20465;-84
2021/04/06 11:24:38;;;;;;;5.80;2.07;;;21.50;48.80;;;;;;5061091;28;20417;-84
2021/04/06 11:27:09;;;;;;;3.30;1.63;;;21.50;48.50;;;;;;5045275;28;20422;-85
2021/04/06 11:29:37;;;;;;;3.97;1.80;;;21.50;48.50;;;;;;5044667;28;20463;-84
2021/04/06 11:32:07;;;;;;;3.23;1.40;;;21.40;48.40;;;;;;5065335;28;20448;-84
2021/04/06 11:34:36;;;;;;;2.17;1.93;;;21.50;48.70;;;;;;5065978;28;20413;-84
2021/04/06 11:37:02;;;;;;;4.37;1.90;;;21.50;49.20;;;;;;5064253;28;20445;-84
2021/04/06 11:39:32;;;;;;;2.47;1.30;;;21.40;48.80;;;;;;5064806;28;20425;-83
2021/04/06 11:41:58;;;;;;;2.50;1.40;;;21.50;48.50;;;;;;5047955;28;20537;-84
2021/04/06 11:44:25;;;;;;;3.33;1.73;;;21.50;48.50;;;;;;5064446;28;20412;-84
2021/04/06 11:46:52;;;;;;;3.33;1.70;;;21.50;48.60;;;;;;5064493;28;20402;-84
2021/04/06 11:49:19;;;;;;;2.13;1.20;;;21.50;48.80;;;;;;5047648;28;20486;-84
2021/04/06 11:51:46;;;;;;;2.10;1.17;;;21.50;48.50;;;;;;5065819;28;20409;-83
2021/04/06 11:54:14;;;;;;;3.63;1.60;;;21.50;48.60;;;;;;5063986;28;20923;-84
2021/04/06 11:56:40;;;;;;;3.80;1.53;;;21.50;48.60;;;;;;5064511;28;20481;-84
2021/04/06 11:59:06;;;;;;;2.70;1.33;;;21.40;49.00;;;;;;5065335;28;20413;-84
2021/04/06 12:01:33;;;;;;;3.00;1.77;;;21.40;48.90;;;;;;5063148;28;20440;-84
2021/04/06 12:04:00;;;;;;;3.97;1.30;;;21.40;48.50;;;;;;5064033;28;20178;-84
2021/04/06 12:06:26;;;;;;;5.47;1.37;;;21.40;49.20;;;;;;5063774;28;20507;-84
2021/04/06 12:08:52;;;;;;;1.63;1.50;;;21.40;48.60;;;;;;5047729;28;20924;-84
2021/04/06 12:11:18;;;;;;;2.40;1.30;;;21.50;48.50;;;;;;5065022;28;20415;-84
2021/04/06 12:13:44;;;;;;;7.23;1.50;;;21.40;48.80;;;;;;5065478;28;20496;-84
2021/04/06 12:16:10;;;;;;;3.90;1.70;;;21.50;48.50;;;;;;5063125;28;20425;-83
2021/04/06 12:18:35;;;;;;;2.00;1.23;;;21.50;49.20;;;;;;5065171;28;20413;-84
2021/04/06 12:21:01;;;;;;;3.00;1.60;;;21.50;48.70;;;;;;5047555;28;20186;-84
2021/04/06 12:23:27;;;;;;;3.80;1.60;;;21.50;49.40;;;;;;5066392;28;20500;-84
2021/04/06 12:25:55;;;;;;;6.20;2.03;;;21.50;48.80;;;;;;5066969;28;20214;-83
2021/04/06 12:28:20;;;;;;;2.47;1.60;;;21.50;48.80;;;;;;5048560;28;20171;-84
2021/04/06 12:30:46;;;;;;;3.50;1.50;;;21.50;48.70;;;;;;5049417;28;20429;-84
2021/04/06 12:33:12;;;;;;;1.70;1.10;;;21.50;49.10;;;;;;5047446;28;20422;-84
2021/04/06 12:35:39;;;;;;;2.50;1.33;;;21.50;49.10;;;;;;5050088;28;20413;-84
2021/04/06 12:38:06;;;;;;;2.03;1.27;;;21.50;48.60;;;;;;5033108;28;20520;-84
2021/04/06 12:40:32;;;;;;;2.33;1.23;;;21.50;48.70;;;;;;5047977;28;20449;-84
2021/04/06 12:42:59;;;;;;;3.43;1.63;;;21.50;49.30;;;;;;5048026;28;20464;-84
2021/04/06 12:45:25;;;;;;;1.80;1.30;;;21.50;48.80;;;;;;5046420;28;20421;-86
2021/04/06 12:47:51;;;;;;;3.33;1.37;;;21.50;48.70;;;;;;5063485;28;20432;-84
2021/04/06 12:50:17;;;;;;;1.47;0.90;;;21.50;48.80;;;;;;5064480;28;20410;-83
2021/04/06 12:52:43;;;;;;;1.80;1.00;;;21.50;48.80;;;;;;5064686;28;20191;-85
2021/04/06 12:55:12;;;;;;;2.00;1.10;;;21.50;49.00;;;;;;5063071;28;20417;-84
2021/04/06 12:57:38;;;;;;;2.43;1.23;;;21.50;48.50;;;;;;5064641;28;20429;-83
2021/04/06 13:00:05;;;;;;;3.07;1.40;;;21.50;48.70;;;;;;5066432;28;20428;-83
2021/04/06 13:02:33;;;;;;;1.70;1.10;;;21.50;48.60;;;;;;5049858;28;20229;-83
2021/04/06 13:04:59;;;;;;;1.97;1.60;;;21.50;49.60;;;;;;5050220;28;20413;-83
2021/04/06 13:07:25;;;;;;;2.40;1.13;;;21.50;48.60;;;;;;5049876;28;20512;-83
2021/04/06 13:09:50;;;;;;;1.30;1.20;;;21.50;49.10;;;;;;5067771;28;20459;-83